メインページ
METAR-TAF:

METAR-TAF

空港 :

エルシリオ・ルス国際空港

フロリアノーポリス, サンタカタリーナ州, ブラジル

緯度: 27-40S, 経度: 048-33W, 海抜: 5m

現時点の気象観測

当レポートは26分前の06:00(UTC)に作成
南/南西の風 7kt
気温 17°C
湿度 82%
気圧 1018 hPa
視程10km以上
高度3000ftの雲は散在している

METAR: SBFL 200600Z 21007KT 9999 SCT030 17/14 Q1018

時間: 03:26 (06:26 UTC)

予報

当レポートは3時間26分前の03:00(UTC)に作成
予報は20日の 06時(UTC)から 21日の 06時(UTC)まで有効
の風 10kt
視程10km以上
高度3000ftの雲は散在している
20日の 06時(UTC)から 20日の 10時(UTC)まで一時的に
高度2000ftの千切れ雲あり
20日の 10時(UTC)から 20日の 12時(UTC)まで徐々に
高度3500ftの雲は散在している
20日の 21時(UTC)から 20日の 23時(UTC)まで徐々に
南東の風 7kt

TAF: SBFL 200300Z 2006/2106 18010KT 9999 SCT030 TN17/2009Z TX22/2018Z TEMPO 2006/2010 BKN020 BECMG 2010/2012 SCT035 BECMG 2021/2023 14007KT RMK PDJ

4,000以上の空港の気象観測と天気予報(METAR報とTAF報)

利用可能な観測所は地図上に黄色い丸と赤い丸で示す。

丸の上にカーソルを重ねると観測所名を参照できる。

次にクリックすると気象観測と天気予報を参照できる。

マップの切り替え:黒色「×」印の緑ボタンをクリックして拡大、「-」印の緑ボタンをクリックして縮小、緑色の三角印をクリックして隣りの地図に切り替え


METAR-TAF: